Time;durP1;ratioP1;P1;durP2;ratioP2;P2;SDS_P1;SDS_P2;PMS_P1;PMS_P2;Temp;Humidity;BMP_temperature;BMP_pressure;BME280_temperature;BME280_humidity;BME280_pressure;Samples;Min_cycle;Max_cycle;Signal;HPM_P1;HPM_P2
2023/09/19 00:01:14;;;;;;;5.30;1.80;;;;;;;15.44;100.00;100617.44;4910213;29;20436;-70
2023/09/19 00:03:42;;;;;;;5.03;1.77;;;;;;;16.20;100.00;100707.56;4925151;29;20302;-70
2023/09/19 00:06:08;;;;;;;6.43;1.63;;;;;;;16.26;100.00;100730.97;4923519;29;20233;-70
2023/09/19 00:08:34;;;;;;;4.40;1.27;;;;;;;15.61;100.00;100690.56;4924616;29;20445;-70
2023/09/19 00:11:05;;;;;;;4.77;1.50;;;;;;;15.30;100.00;100619.59;4907251;29;20224;-70
2023/09/19 00:13:31;;;;;;;9.47;1.90;;;;;;;15.38;100.00;100624.63;4909634;29;20503;-70
2023/09/19 00:15:58;;;;;;;5.57;1.80;;;;;;;15.36;100.00;100702.44;4900843;29;20455;-70
2023/09/19 00:18:28;;;;;;;6.20;1.67;;;;;;;15.07;100.00;100635.78;4918150;29;20455;-70
2023/09/19 00:20:57;;;;;;;5.63;1.70;;;;;;;14.75;100.00;100619.88;4910714;29;20530;-70
2023/09/19 00:23:24;;;;;;;5.77;1.90;;;;;;;15.46;100.00;100709.13;4910621;29;20452;-70
2023/09/19 00:25:50;;;;;;;3.97;1.43;;;;;;;14.99;100.00;100649.63;4923531;29;20484;-69
2023/09/19 00:28:17;;;;;;;6.83;1.60;;;;;;;15.30;100.00;100697.97;4897917;29;20532;-69
2023/09/19 00:30:55;;;;;;;6.20;1.80;;;;;;;15.57;100.00;100756.97;4908223;29;20563;-69
2023/09/19 00:33:20;;;;;;;6.13;1.50;;;;;;;15.48;100.00;100761.09;4922289;29;20478;-70
2023/09/19 00:35:50;;;;;;;7.90;1.60;;;;;;;14.81;100.00;100670.28;4909312;29;20444;-70
2023/09/19 00:38:18;;;;;;;5.63;1.50;;;;;;;15.10;100.00;100727.16;4903384;29;20207;-69
2023/09/19 00:40:44;;;;;;;8.90;2.13;;;;;;;15.41;100.00;100763.88;4897611;29;20604;-70
2023/09/19 00:43:10;;;;;;;8.43;2.27;;;;;;;15.35;100.00;100775.63;4905399;29;20459;-69
2023/09/19 00:45:38;;;;;;;9.20;2.00;;;;;;;15.47;100.00;100784.56;4907831;29;20443;-70
2023/09/19 00:48:08;;;;;;;6.70;1.97;;;;;;;15.20;100.00;100740.94;4924613;29;20179;-70
2023/09/19 00:50:35;;;;;;;6.67;1.80;;;;;;;15.39;100.00;100787.63;4921295;29;20472;-70
2023/09/19 00:53:05;;;;;;;5.27;1.60;;;;;;;15.26;100.00;100785.94;4908010;29;20456;-70
2023/09/19 00:55:32;;;;;;;6.53;1.60;;;;;;;15.25;100.00;100787.00;4920468;29;20444;-70
2023/09/19 00:57:58;;;;;;;6.57;1.83;;;;;;;15.29;100.00;100784.66;4921910;29;20581;-70
2023/09/19 01:00:24;;;;;;;7.13;1.80;;;;;;;14.43;100.00;100694.84;4918322;29;20537;-69
2023/09/19 01:02:50;;;;;;;14.87;2.23;;;;;;;15.03;100.00;100802.88;4910065;29;20240;-70
2023/09/19 01:05:16;;;;;;;6.53;1.70;;;;;;;14.75;100.00;100729.75;4910294;29;20486;-70
2023/09/19 01:07:42;;;;;;;5.07;1.83;;;;;;;14.75;100.00;100718.94;4920990;29;20871;-70
2023/09/19 01:10:14;;;;;;;7.30;1.70;;;;;;;15.07;100.00;100822.16;4910154;29;20511;-69
2023/09/19 01:12:40;;;;;;;5.53;1.60;;;;;;;15.10;100.00;100846.84;4920901;29;20219;-69
2023/09/19 01:15:40;;;;;;;6.07;1.80;;;;;;;15.04;100.00;100822.63;4923240;29;20444;-70
2023/09/19 01:18:14;;;;;;;5.40;1.70;;;;;;;15.10;100.00;100854.97;4919936;29;20436;-70
2023/09/19 01:20:49;;;;;;;6.40;1.97;;;;;;;14.82;100.00;100849.31;4906781;29;20443;-70
2023/09/19 01:23:23;;;;;;;12.93;2.53;;;;;;;14.73;100.00;100816.38;4909025;29;20456;-70
2023/09/19 01:26:08;;;;;;;7.10;2.10;;;;;;;15.00;100.00;100868.16;4922310;29;20479;-70
2023/09/19 01:28:54;;;;;;;7.30;2.00;;;;;;;14.89;100.00;100864.34;4923084;29;20444;-70
2023/09/19 01:31:21;;;;;;;6.67;1.60;;;;;;;14.03;100.00;100741.19;4919869;29;20464;-70
2023/09/19 01:34:01;;;;;;;9.53;2.30;;;;;;;14.27;100.00;100789.91;4922033;29;20475;-70
2023/09/19 01:36:36;;;;;;;6.73;2.13;;;;;;;14.11;100.00;100745.44;4924953;29;20347;-70
2023/09/19 01:39:08;;;;;;;9.73;2.30;;;;;;;14.93;100.00;100859.34;4924775;29;20434;-70
2023/09/19 01:41:51;;;;;;;12.13;2.43;;;;;;;14.90;100.00;100857.91;4922539;29;20448;-70
2023/09/19 01:44:36;;;;;;;7.17;1.63;;;;;;;14.30;100.00;100765.19;4909257;29;20930;-70
2023/09/19 01:47:07;;;;;;;6.60;1.80;;;;;;;14.24;100.00;100740.75;4897254;29;20443;-70
2023/09/19 01:49:48;;;;;;;7.70;1.80;;;;;;;14.12;100.00;100679.69;4907686;29;20504;-69
2023/09/19 01:52:13;;;;;;;6.30;1.60;;;;;;;15.01;100.00;100840.09;4909339;29;20616;-70
2023/09/19 01:54:50;;;;;;;6.00;1.73;;;;;;;14.77;100.00;100836.47;4920044;29;20527;-70
2023/09/19 01:57:28;;;;;;;9.13;2.17;;;;;;;14.36;100.00;100754.28;4923084;29;20772;-70
2023/09/19 02:00:07;;;;;;;7.20;1.90;;;;;;;14.69;100.00;100834.06;4908559;29;20520;-70
2023/09/19 02:02:40;;;;;;;6.50;1.93;;;;;;;14.73;100.00;100816.38;4910309;29;20458;-69
2023/09/19 02:05:06;;;;;;;10.67;2.70;;;;;;;14.75;100.00;100816.97;4912105;29;20440;-69
2023/09/19 02:07:32;;;;;;;8.17;1.80;;;;;;;14.02;100.00;100693.69;4911439;29;21067;-70
2023/09/19 02:10:00;;;;;;;6.60;2.17;;;;;;;14.74;100.00;100814.50;4922429;29;20232;-69
2023/09/19 02:12:27;;;;;;;5.73;2.20;;;;;;;14.18;100.00;100727.34;4912382;29;20452;-70
2023/09/19 02:14:52;;;;;;;6.47;1.73;;;;;;;14.34;100.00;100756.38;4926533;29;20515;-70
2023/09/19 02:17:19;;;;;;;5.77;1.83;;;;;;;14.33;100.00;100783.59;4911934;29;20864;-70
2023/09/19 02:19:44;;;;;;;10.13;2.67;;;;;;;13.93;100.00;100703.13;4928051;29;20184;-69
2023/09/19 02:22:10;;;;;;;8.30;1.80;;;;;;;14.46;100.00;100776.19;4926435;29;20504;-69
2023/09/19 02:24:39;;;;;;;7.40;1.83;;;;;;;13.75;100.00;100672.41;4924152;29;20230;-69
2023/09/19 02:27:05;;;;;;;7.90;2.03;;;;;;;14.53;100.00;100786.09;4912988;29;20177;-70
2023/09/19 02:29:31;;;;;;;6.80;2.03;;;;;;;13.67;100.00;100651.13;4927423;29;20452;-69
2023/09/19 02:31:56;;;;;;;8.63;2.20;;;;;;;13.93;100.00;100668.88;4911389;29;20476;-70
2023/09/19 02:34:22;;;;;;;6.40;1.80;;;;;;;13.84;100.00;100658.63;4912878;29;20858;-69
2023/09/19 02:36:48;;;;;;;6.00;1.63;;;;;;;14.21;100.00;100686.41;4926356;29;20185;-69
2023/09/19 02:39:13;;;;;;;9.83;2.00;;;;;;;14.28;100.00;100743.81;4912857;29;20504;-69
2023/09/19 02:41:40;;;;;;;5.87;1.90;;;;;;;14.54;100.00;100755.34;4924449;29;20196;-70
2023/09/19 02:44:07;;;;;;;7.67;1.97;;;;;;;14.11;100.00;100726.56;4911999;29;20207;-69
2023/09/19 02:46:33;;;;;;;8.13;2.20;;;;;;;13.79;100.00;100684.38;4924513;29;20817;-70
2023/09/19 02:48:59;;;;;;;7.87;1.57;;;;;;;14.44;100.00;100774.75;4911792;29;20523;-69
2023/09/19 02:51:24;;;;;;;8.53;2.33;;;;;;;14.23;100.00;100716.66;4910572;29;20474;-69
2023/09/19 02:53:52;;;;;;;6.60;1.80;;;;;;;13.63;100.00;100663.44;4924243;29;20227;-69
2023/09/19 02:56:18;;;;;;;6.10;2.30;;;;;;;14.15;100.00;100758.28;4924260;29;20243;-69
2023/09/19 02:58:44;;;;;;;6.10;1.70;;;;;;;13.86;100.00;100713.16;4910399;29;20437;-70
2023/09/19 03:01:12;;;;;;;6.67;1.33;;;;;;;14.44;100.00;100764.78;4907095;29;20442;-69
2023/09/19 03:03:39;;;;;;;11.50;2.47;;;;;;;14.23;100.00;100741.78;4909511;29;20196;-70
2023/09/19 03:06:08;;;;;;;7.50;2.00;;;;;;;14.44;100.00;100750.47;4920197;29;20469;-70
2023/09/19 03:08:36;;;;;;;9.90;1.97;;;;;;;13.84;100.00;100648.69;4925461;29;20452;-70
2023/09/19 03:11:11;;;;;;;13.13;2.77;;;;;;;13.89;100.00;100674.97;4923956;29;20566;-69
2023/09/19 03:13:37;;;;;;;11.00;2.67;;;;;;;13.63;100.00;100663.44;4924710;29;21030;-69
2023/09/19 03:16:05;;;;;;;11.57;2.60;;;;;;;14.04;100.00;100739.31;4926175;29;20806;-69
2023/09/19 03:18:32;;;;;;;8.63;2.37;;;;;;;14.23;100.00;100782.25;4926188;29;20449;-69
2023/09/19 03:21:00;;;;;;;12.47;2.30;;;;;;;13.67;100.00;100685.34;4911625;29;20440;-69
2023/09/19 03:23:26;;;;;;;9.90;1.97;;;;;;;13.53;100.00;100687.34;4924059;29;20563;-69
2023/09/19 03:25:52;;;;;;;6.30;1.93;;;;;;;14.13;100.00;100764.94;4911243;29;20436;-69
2023/09/19 03:28:18;;;;;;;9.43;2.00;;;;;;;13.69;100.00;100705.66;4920430;29;20480;-69
2023/09/19 03:30:44;;;;;;;9.60;2.10;;;;;;;13.72;100.00;100718.69;4925128;29;20555;-69
2023/09/19 03:33:12;;;;;;;5.73;1.80;;;;;;;13.75;100.00;100704.75;4909917;29;20468;-70
2023/09/19 03:35:38;;;;;;;9.43;2.33;;;;;;;14.13;100.00;100786.50;4922966;29;20908;-69
2023/09/19 03:38:04;;;;;;;10.40;2.67;;;;;;;13.37;100.00;100693.31;4925381;29;20428;-69
2023/09/19 03:40:30;;;;;;;9.33;2.30;;;;;;;13.54;100.00;100710.56;4909910;29;21050;-69
2023/09/19 03:42:55;;;;;;;8.47;1.90;;;;;;;13.94;100.00;100761.38;4908272;29;20505;-69
2023/09/19 03:45:21;;;;;;;8.30;1.83;;;;;;;13.88;100.00;100776.56;4909336;29;20527;-69
2023/09/19 03:47:49;;;;;;;8.20;2.10;;;;;;;14.04;100.00;100777.91;4908693;29;20569;-70
2023/09/19 03:50:17;;;;;;;10.43;1.70;;;;;;;13.46;100.00;100743.19;4916503;29;21496;-70
2023/09/19 03:52:45;;;;;;;6.40;1.87;;;;;;;14.31;100.00;100834.25;4917513;29;20460;-70
2023/09/19 03:55:11;;;;;;;9.70;1.70;;;;;;;14.24;100.00;100828.94;4907611;29;20476;-70
2023/09/19 03:57:36;;;;;;;8.83;1.90;;;;;;;13.32;100.00;100713.66;4923931;29;20527;-70
2023/09/19 04:00:05;;;;;;;8.77;2.23;;;;;;;13.25;100.00;100693.16;4921379;29;20196;-69
2023/09/19 04:02:33;;;;;;;8.70;1.97;;;;;;;13.88;100.00;100768.50;4921659;29;20188;-70
2023/09/19 04:04:58;;;;;;;6.00;1.93;;;;;;;13.53;100.00;100723.19;4925658;29;20979;-70
2023/09/19 04:07:25;;;;;;;7.90;2.20;;;;;;;13.85;100.00;100798.59;4910929;29;20451;-70
2023/09/19 04:09:53;;;;;;;7.67;2.27;;;;;;;13.86;100.00;100794.06;4924624;29;20192;-70
2023/09/19 04:12:19;;;;;;;9.07;2.20;;;;;;;13.46;100.00;100748.56;4908196;29;21375;-70
2023/09/19 04:14:44;;;;;;;5.83;1.50;;;;;;;13.48;100.00;100749.16;4910545;29;20433;-70
2023/09/19 04:17:10;;;;;;;8.17;2.00;;;;;;;13.45;100.00;100736.97;4910283;29;20192;-70
2023/09/19 04:19:36;;;;;;;8.40;2.23;;;;;;;13.29;100.00;100735.63;4923770;29;20199;-70
2023/09/19 04:22:02;;;;;;;8.87;2.40;;;;;;;13.17;100.00;100725.78;4910705;29;20188;-69
2023/09/19 04:24:28;;;;;;;6.97;2.03;;;;;;;13.84;100.00;100841.97;4917674;29;20237;-70
2023/09/19 04:26:53;;;;;;;8.07;2.10;;;;;;;13.23;100.00;100749.13;4907972;29;20485;-69
2023/09/19 04:29:20;;;;;;;11.23;2.40;;;;;;;13.95;100.00;100887.91;4910751;29;20195;-70
2023/09/19 04:31:45;;;;;;;5.73;1.67;;;;;;;14.00;100.00;100877.31;4899558;29;20216;-69
2023/09/19 04:34:17;;;;;;;7.90;1.73;;;;;;;13.33;100.00;100771.84;4921542;29;20486;-69
2023/09/19 04:36:43;;;;;;;8.83;1.87;;;;;;;13.45;100.00;100782.78;4919282;29;20223;-69
2023/09/19 04:39:10;;;;;;;7.47;2.17;;;;;;;13.89;100.00;100874.50;4921708;29;20472;-69
2023/09/19 04:41:38;;;;;;;9.20;2.07;;;;;;;14.17;100.00;100879.41;4915973;29;21493;-69
2023/09/19 04:44:04;;;;;;;7.17;1.83;;;;;;;13.39;100.00;100783.63;4922362;29;20479;-69
2023/09/19 04:46:30;;;;;;;5.77;1.60;;;;;;;13.96;100.00;100861.78;4906479;29;20479;-69
2023/09/19 04:48:55;;;;;;;10.10;2.00;;;;;;;14.02;100.00;100842.00;4921882;29;20449;-69
2023/09/19 04:51:21;;;;;;;10.00;2.33;;;;;;;13.82;100.00;100811.69;4918719;29;20248;-71
2023/09/19 04:53:47;;;;;;;8.33;2.00;;;;;;;13.24;100.00;100751.59;4908925;29;20633;-70
2023/09/19 04:56:13;;;;;;;7.83;2.10;;;;;;;13.93;100.00;100837.94;4925041;29;20251;-69
2023/09/19 04:58:38;;;;;;;8.57;2.53;;;;;;;14.06;100.00;100863.97;4910490;29;20456;-70
2023/09/19 05:01:04;;;;;;;5.40;1.80;;;;;;;13.94;100.00;100842.28;4909183;29;20192;-70
2023/09/19 05:03:30;;;;;;;8.53;2.47;;;;;;;14.16;100.00;100864.28;4909976;29;20568;-70
2023/09/19 05:05:55;;;;;;;8.60;2.40;;;;;;;13.62;100.00;100788.41;4907446;29;20223;-69
2023/09/19 05:08:22;;;;;;;5.63;1.90;;;;;;;13.82;100.00;100822.47;4909755;29;20354;-69
2023/09/19 05:10:48;;;;;;;13.30;2.43;;;;;;;14.13;100.00;100870.13;4917305;29;20633;-69
2023/09/19 05:13:14;;;;;;;8.70;2.60;;;;;;;13.56;100.00;100776.66;4923385;29;20975;-69
2023/09/19 05:15:39;;;;;;;8.03;2.10;;;;;;;14.28;100.00;100869.78;4907030;29;20458;-69
2023/09/19 05:18:06;;;;;;;9.40;3.07;;;;;;;13.59;100.00;100774.56;4918572;29;20189;-69
2023/09/19 05:20:37;;;;;;;9.13;1.83;;;;;;;14.14;100.00;100866.38;4900718;29;20211;-70
2023/09/19 05:23:12;;;;;;;9.30;2.00;;;;;;;14.13;100.00;100872.84;4921458;29;20460;-70
2023/09/19 05:25:39;;;;;;;8.60;1.80;;;;;;;13.78;100.00;100822.94;4921755;29;20455;-70
2023/09/19 05:28:07;;;;;;;7.60;2.60;;;;;;;14.15;100.00;100887.75;4916210;29;20560;-70
2023/09/19 05:30:33;;;;;;;10.80;2.10;;;;;;;14.16;100.00;100889.38;4923831;29;21365;-70
2023/09/19 05:32:59;;;;;;;8.57;1.90;;;;;;;13.60;100.00;100776.22;4913117;29;21105;-69
2023/09/19 05:35:26;;;;;;;7.50;2.60;;;;;;;13.53;100.00;100785.19;4905109;29;20532;-70
2023/09/19 05:37:52;;;;;;;7.63;2.20;;;;;;;14.15;100.00;100882.34;4923251;29;20255;-70
2023/09/19 05:40:19;;;;;;;6.03;1.50;;;;;;;14.25;100.00;100885.34;4912796;29;20431;-70
2023/09/19 05:42:44;;;;;;;5.37;1.80;;;;;;;13.45;100.00;100795.41;4925742;29;20550;-70
2023/09/19 05:45:13;;;;;;;9.30;1.73;;;;;;;13.41;100.00;100784.25;4910745;29;20574;-69
2023/09/19 05:47:46;;;;;;;9.53;2.07;;;;;;;13.66;100.00;100823.88;4925979;29;20219;-70
2023/09/19 05:50:12;;;;;;;7.60;1.90;;;;;;;13.48;100.00;100784.19;4926542;29;20448;-70
2023/09/19 05:52:44;;;;;;;13.30;3.20;;;;;;;13.86;100.00;100835.31;4912928;29;20702;-69
2023/09/19 05:55:10;;;;;;;6.63;2.13;;;;;;;13.30;100.00;100785.75;4927277;29;20472;-70
2023/09/19 05:57:38;;;;;;;13.13;2.70;;;;;;;14.14;100.00;100896.88;4925299;29;20515;-69
2023/09/19 06:00:10;;;;;;;5.07;1.90;;;;;;;14.14;100.00;100902.25;4927210;29;20460;-69
2023/09/19 06:02:36;;;;;;;9.67;2.47;;;;;;;13.54;100.00;100807.59;4926869;29;20520;-69
2023/09/19 06:05:01;;;;;;;11.30;2.67;;;;;;;13.45;100.00;100801.63;4912527;29;20483;-69
2023/09/19 06:07:36;;;;;;;7.57;2.07;;;;;;;13.94;100.00;100853.91;4913463;29;20463;-70
2023/09/19 06:10:01;;;;;;;10.33;2.43;;;;;;;13.68;100.00;100805.59;4925120;29;20192;-69
2023/09/19 06:12:28;;;;;;;10.10;2.07;;;;;;;13.84;100.00;100869.75;4909993;29;21036;-70
2023/09/19 06:14:54;;;;;;;7.47;1.70;;;;;;;14.15;100.00;100903.94;4924100;29;20448;-69
2023/09/19 06:17:19;;;;;;;10.13;2.20;;;;;;;13.22;100.00;100796.78;4925770;29;20523;-70
2023/09/19 06:19:47;;;;;;;10.40;2.23;;;;;;;13.79;100.00;100859.59;4926017;29;20215;-71
2023/09/19 06:22:17;;;;;;;7.17;2.10;;;;;;;13.73;100.00;100865.06;4926032;29;20189;-70
2023/09/19 06:24:43;;;;;;;8.30;2.27;;;;;;;14.20;100.00;100928.38;4925189;29;20838;-70
2023/09/19 06:27:08;;;;;;;8.17;1.83;;;;;;;14.43;100.00;100933.13;4912379;29;20468;-70
2023/09/19 06:29:34;;;;;;;6.30;1.97;;;;;;;14.14;100.00;100912.22;4926171;29;20185;-71
2023/09/19 06:31:59;;;;;;;6.93;2.27;;;;;;;14.25;100.00;100925.81;4910235;29;20216;-71
2023/09/19 06:34:25;;;;;;;7.53;1.90;;;;;;;14.44;100.00;100945.59;4909815;29;20588;-71
2023/09/19 06:36:51;;;;;;;5.30;2.20;;;;;;;13.48;100.00;100821.91;4926488;29;20545;-70
2023/09/19 06:39:17;;;;;;;10.87;2.63;;;;;;;14.26;100.00;100926.66;4912996;29;20441;-70
2023/09/19 06:41:42;;;;;;;9.87;2.17;;;;;;;14.32;100.00;100935.72;4913911;29;20424;-71
2023/09/19 06:44:09;;;;;;;9.17;2.17;;;;;;;14.38;100.00;100946.50;4925564;29;20691;-70
2023/09/19 06:46:35;;;;;;;9.33;2.80;;;;;;;14.25;100.00;100939.31;4912357;29;20185;-71
2023/09/19 06:49:06;;;;;;;9.63;3.23;;;;;;;14.30;100.00;100938.66;4918045;29;21291;-71
2023/09/19 06:51:31;;;;;;;6.97;2.20;;;;;;;13.89;100.00;100853.75;4925089;29;20511;-70
2023/09/19 06:53:58;;;;;;;11.17;2.70;;;;;;;13.65;100.00;100836.50;4909793;29;20987;-71
2023/09/19 06:56:24;;;;;;;10.50;2.23;;;;;;;14.17;100.00;100890.22;4923635;29;20263;-71
2023/09/19 06:58:50;;;;;;;6.70;2.27;;;;;;;14.18;100.00;100876.50;4926806;29;20425;-71
2023/09/19 07:01:15;;;;;;;10.10;2.27;;;;;;;14.36;100.00;100907.28;4910098;29;20944;-71
2023/09/19 07:03:41;;;;;;;7.93;2.10;;;;;;;14.17;100.00;100901.81;4919829;29;20212;-71
2023/09/19 07:06:08;;;;;;;9.20;2.57;;;;;;;14.31;100.00;100899.00;4910465;29;20203;-71
2023/09/19 07:08:34;;;;;;;7.50;1.87;;;;;;;14.28;100.00;100913.78;4911534;29;20831;-71
2023/09/19 07:10:59;;;;;;;6.00;1.90;;;;;;;13.72;100.00;100826.50;4910848;29;20490;-71
2023/09/19 07:13:25;;;;;;;8.73;1.87;;;;;;;14.39;100.00;100906.81;4919509;29;20696;-71
2023/09/19 07:15:51;;;;;;;13.47;2.83;;;;;;;14.43;100.00;100905.31;4925260;29;20683;-71
2023/09/19 07:18:17;;;;;;;12.83;3.57;;;;;;;13.93;100.00;100816.38;4907260;29;20189;-71
2023/09/19 07:20:50;;;;;;;10.13;2.90;;;;;;;13.88;100.00;100833.19;4920667;29;20652;-71
2023/09/19 07:23:20;;;;;;;10.90;2.77;;;;;;;13.64;100.00;100832.16;4922678;29;20448;-71
2023/09/19 07:25:46;;;;;;;10.20;2.70;;;;;;;14.56;100.00;100931.41;4925838;29;20471;-71
2023/09/19 07:28:12;;;;;;;10.90;2.27;;;;;;;14.46;100.00;100918.38;4923650;29;20441;-71
2023/09/19 07:30:37;;;;;;;15.47;3.87;;;;;;;14.52;100.00;100933.69;4909634;29;20244;-71
2023/09/19 07:33:05;;;;;;;8.23;2.00;;;;;;;13.71;100.00;100818.63;4924345;29;20223;-71
2023/09/19 07:35:31;;;;;;;9.70;3.43;;;;;;;14.36;100.00;100939.66;4920886;29;20180;-71
2023/09/19 07:38:01;;;;;;;9.53;2.50;;;;;;;14.38;100.00;100902.50;4919963;29;20466;-71
2023/09/19 07:40:28;;;;;;;8.90;2.40;;;;;;;14.31;100.00;100913.31;4923461;29;21114;-71
2023/09/19 07:43:01;;;;;;;7.43;2.00;;;;;;;14.03;100.00;100862.56;4919338;29;20464;-71
2023/09/19 07:45:29;;;;;;;8.47;2.40;;;;;;;14.40;100.00;100903.06;4924657;29;20455;-71
2023/09/19 07:47:55;;;;;;;6.27;2.00;;;;;;;14.39;100.00;100941.91;4920736;29;20437;-71
2023/09/19 07:50:21;;;;;;;9.73;2.80;;;;;;;13.62;100.00;100819.94;4920024;29;20908;-71
2023/09/19 07:52:47;;;;;;;11.40;2.53;;;;;;;14.46;100.00;100935.41;4910995;29;20205;-71
2023/09/19 07:55:16;;;;;;;11.63;2.67;;;;;;;14.32;100.00;100882.63;4923141;29;20512;-71
2023/09/19 07:57:42;;;;;;;13.07;2.93;;;;;;;14.63;100.00;100951.06;4910861;29;20436;-71
2023/09/19 08:00:09;;;;;;;9.50;2.53;;;;;;;14.33;100.00;100889.66;4909054;29;20456;-71
2023/09/19 08:02:37;;;;;;;11.13;2.60;;;;;;;14.02;100.00;100840.13;4922874;29;20508;-71
2023/09/19 08:05:06;;;;;;;8.50;2.47;;;;;;;14.05;100.00;100820.00;4924520;29;20495;-71
2023/09/19 08:07:32;;;;;;;8.00;2.17;;;;;;;14.10;100.00;100822.84;4924653;29;20420;-70
2023/09/19 08:09:58;;;;;;;7.90;2.43;;;;;;;14.23;100.00;100849.72;4946754;23;20588;-68
2023/09/19 08:12:24;;;;;;;11.90;2.87;;;;;;;14.62;100.00;100919.72;4964235;28;20469;-71
2023/09/19 08:14:50;;;;;;;15.47;2.70;;;;;;;13.71;100.00;100791.66;4949123;28;20902;-71
2023/09/19 08:17:16;;;;;;;7.50;2.57;;;;;;;14.42;100.00;100866.72;4962816;28;20195;-70
2023/09/19 08:19:42;;;;;;;10.87;2.77;;;;;;;14.56;100.00;100867.44;4948095;28;20443;-71
2023/09/19 08:22:10;;;;;;;12.17;2.67;;;;;;;14.43;100.00;100848.66;4947503;28;20218;-70
2023/09/19 08:24:35;;;;;;;10.33;2.70;;;;;;;14.77;100.00;100893.16;4941946;28;20462;-70
2023/09/19 08:27:04;;;;;;;9.33;2.47;;;;;;;14.98;100.00;100896.47;4945840;28;20454;-71
2023/09/19 08:29:30;;;;;;;9.20;2.70;;;;;;;14.59;100.00;100834.59;4958245;28;20197;-71
2023/09/19 08:31:57;;;;;;;13.50;3.10;;;;;;;14.57;100.00;100843.97;4949568;28;20508;-71
2023/09/19 08:34:23;;;;;;;10.30;2.40;;;;;;;14.87;100.00;100871.06;4948678;28;20545;-71
2023/09/19 08:36:56;;;;;;;8.97;2.53;;;;;;;14.89;100.00;100850.84;4946665;28;20968;-71
2023/09/19 08:39:25;;;;;;;16.20;3.60;;;;;;;14.65;100.00;100825.59;4949086;28;20525;-71
2023/09/19 08:42:01;;;;;;;10.00;2.60;;;;;;;15.21;100.00;100887.66;4946885;28;20445;-70
2023/09/19 08:44:30;;;;;;;11.37;2.73;;;;;;;15.00;100.00;100829.53;4947213;28;20481;-71
2023/09/19 08:47:07;;;;;;;12.10;2.43;;;;;;;15.38;100.00;100878.66;4959033;28;20438;-71
2023/09/19 08:49:43;;;;;;;11.40;3.07;;;;;;;15.40;100.00;100867.63;4976910;28;20442;-71
2023/09/19 08:52:42;;;;;;;12.20;2.67;;;;;;;15.40;100.00;100861.41;4946008;28;20520;-70
2023/09/19 08:55:12;;;;;;;8.50;2.17;;;;;;;14.98;100.00;100794.63;4969513;28;20466;-70
2023/09/19 08:57:42;;;;;;;8.27;2.60;;;;;;;15.46;100.00;100869.41;4946338;28;20709;-71
2023/09/19 09:00:12;;;;;;;7.10;2.37;;;;;;;15.46;100.00;100845.09;4963515;28;20423;-71
2023/09/19 09:02:43;;;;;;;12.57;2.90;;;;;;;15.55;100.00;100856.41;4943852;28;20534;-71
2023/09/19 09:05:14;;;;;;;10.97;2.73;;;;;;;15.60;100.00;100851.94;4946640;28;20923;-70
2023/09/19 09:07:40;;;;;;;9.27;2.60;;;;;;;15.62;100.00;100845.47;4962100;28;20613;-71
2023/09/19 09:10:06;;;;;;;10.47;2.43;;;;;;;14.89;100.00;100709.59;4947525;28;20449;-71
2023/09/19 09:12:33;;;;;;;8.70;2.10;;;;;;;15.74;100.00;100830.97;4947650;28;20489;-71
2023/09/19 09:15:00;;;;;;;7.60;2.10;;;;;;;15.92;100.00;100826.50;4950630;28;20813;-70
2023/09/19 09:17:26;;;;;;;11.93;2.73;;;;;;;15.85;100.00;100809.56;4957375;28;20477;-70
2023/09/19 09:19:54;;;;;;;7.53;3.00;;;;;;;15.91;100.00;100806.75;4981036;28;20438;-71
2023/09/19 09:22:23;;;;;;;6.90;2.03;;;;;;;15.48;100.00;100763.78;4949624;28;20186;-70
2023/09/19 09:24:58;;;;;;;9.60;2.60;;;;;;;15.37;100.00;100795.13;4948516;28;20438;-71
2023/09/19 09:27:24;;;;;;;10.67;2.87;;;;;;;15.30;100.00;100789.84;4951615;28;20458;-71
2023/09/19 09:29:51;;;;;;;14.43;3.80;;;;;;;15.18;100.00;100751.13;4952835;28;20458;-71
2023/09/19 09:32:18;;;;;;;13.70;2.70;;;;;;;15.59;100.00;100825.97;4958662;28;20489;-71
2023/09/19 09:34:44;;;;;;;8.80;2.60;;;;;;;15.24;100.00;100738.56;4950215;28;20434;-71
2023/09/19 09:37:15;;;;;;;9.33;2.70;;;;;;;15.15;100.00;100705.66;4951424;28;20526;-70
2023/09/19 09:39:40;;;;;;;13.53;3.37;;;;;;;15.38;100.00;100694.88;4961586;28;20469;-70
2023/09/19 09:42:06;;;;;;;9.80;2.83;;;;;;;15.31;100.00;100669.06;4947980;28;20921;-70
2023/09/19 09:44:32;;;;;;;11.10;2.53;;;;;;;15.68;100.00;100739.13;4950921;28;20680;-70
2023/09/19 09:47:27;;;;;;;10.87;3.17;;;;;;;15.30;100.00;100708.78;4958719;28;20486;-71
2023/09/19 09:49:54;;;;;;;13.60;3.00;;;;;;;15.31;100.00;100671.75;4952049;28;20419;-71
2023/09/19 09:52:24;;;;;;;10.53;2.80;;;;;;;16.21;100.00;100782.25;4958866;28;20520;-70
2023/09/19 09:55:08;;;;;;;9.33;2.63;;;;;;;15.65;100.00;100689.03;4958931;28;20493;-70
2023/09/19 09:57:34;;;;;;;10.00;3.00;;;;;;;15.60;100.00;100688.91;4982408;28;20519;-70
2023/09/19 10:02:42;;;;;;;12.93;2.90;;;;;;;16.10;100.00;100722.75;4950366;28;20434;-70
2023/09/19 10:07:52;;;;;;;14.93;3.10;;;;;;;16.41;100.00;100743.16;4948815;28;20441;-70
2023/09/19 10:13:12;;;;;;;11.63;3.30;;;;;;;15.64;100.00;100637.88;4949718;28;20461;-70
2023/09/19 10:15:40;;;;;;;12.57;3.43;;;;;;;15.65;100.00;100615.19;4947257;28;20435;-70
2023/09/19 10:18:08;;;;;;;13.23;3.40;;;;;;;15.64;100.00;100629.78;4962770;28;20469;-70
2023/09/19 10:20:38;;;;;;;10.63;2.70;;;;;;;15.66;100.00;100606.84;4962445;28;20992;-71
2023/09/19 10:23:13;;;;;;;10.50;3.37;;;;;;;15.93;100.00;100607.16;4979361;28;20493;-70
2023/09/19 10:25:45;;;;;;;10.93;3.10;;;;;;;16.03;100.00;100604.69;4966510;28;20438;-70
2023/09/19 10:28:13;;;;;;;14.03;3.43;;;;;;;15.85;100.00;100579.69;4949383;28;20447;-71
2023/09/19 10:30:46;;;;;;;8.90;2.30;;;;;;;16.54;100.00;100691.44;4949473;28;20526;-70
2023/09/19 10:33:14;;;;;;;12.73;2.60;;;;;;;16.43;100.00;100679.59;4962251;28;20442;-71
2023/09/19 10:35:45;;;;;;;11.63;3.00;;;;;;;15.78;100.00;100579.81;4962788;28;20450;-70
2023/09/19 10:38:13;;;;;;;10.77;3.47;;;;;;;15.92;100.00;100583.06;4964449;28;20439;-71
2023/09/19 10:40:45;;;;;;;14.30;3.47;;;;;;;16.60;100.00;100654.44;4963542;28;20466;-70
2023/09/19 10:43:17;;;;;;;11.70;2.73;;;;;;;15.93;100.00;100538.72;4961999;28;20542;-70
2023/09/19 10:45:44;;;;;;;13.50;2.87;;;;;;;16.80;100.00;100648.59;4949589;28;20794;-71
2023/09/19 10:48:12;;;;;;;12.30;3.40;;;;;;;16.76;100.00;100591.41;4947724;28;20446;-71
2023/09/19 10:50:45;;;;;;;11.00;2.83;;;;;;;16.88;100.00;100529.00;4962586;28;20481;-71
2023/09/19 10:53:12;;;;;;;11.23;2.60;;;;;;;17.62;100.00;100572.06;4947096;28;20497;-71
2023/09/19 10:55:38;;;;;;;9.80;2.60;;;;;;;16.89;100.00;100450.22;4949580;28;20454;-71
2023/09/19 10:58:14;;;;;;;12.53;3.53;;;;;;;17.57;100.00;100544.88;4961632;28;20505;-70
2023/09/19 11:00:55;;;;;;;11.20;2.77;;;;;;;17.38;100.00;100515.34;4948941;28;20540;-71
2023/09/19 11:03:43;;;;;;;12.70;3.00;;;;;;;17.44;100.00;100521.63;4965122;28;20450;-71
2023/09/19 11:06:15;;;;;;;12.73;3.13;;;;;;;17.46;100.00;100529.53;4962223;28;20945;-71
2023/09/19 11:09:21;;;;;;;9.90;2.63;;;;;;;17.47;100.00;100471.50;4957329;28;20950;-71
2023/09/19 11:11:57;;;;;;;12.80;2.60;;;;;;;17.47;100.00;100476.94;4948492;28;20489;-71
2023/09/19 11:14:25;;;;;;;18.07;3.00;;;;;;;17.72;100.00;100469.09;4959876;28;20544;-71
2023/09/19 11:17:11;;;;;;;13.93;2.50;;;;;;;17.96;100.00;100456.06;4964061;28;20446;-71
2023/09/19 11:22:58;;;;;;;13.77;3.30;;;;;;;18.10;100.00;100417.66;4968714;28;20824;-70
2023/09/19 11:25:30;;;;;;;12.40;2.80;;;;;;;17.94;100.00;100379.56;4957444;28;20488;-71
2023/09/19 11:28:08;;;;;;;8.70;2.90;;;;;;;18.06;100.00;100391.03;4948359;28;20435;-70
2023/09/19 11:30:43;;;;;;;12.00;2.80;;;;;;;17.15;100.00;100252.72;4957017;28;21028;-71
2023/09/19 11:36:15;;;;;;;8.73;2.73;;;;;;;18.19;100.00;100395.19;4946815;28;20949;-70